Time;durP1;ratioP1;P1;durP2;ratioP2;P2;SDS_P1;SDS_P2;PMS_P1;PMS_P2;Temp;Humidity;BMP_temperature;BMP_pressure;BME280_temperature;BME280_humidity;BME280_pressure;Samples;Min_cycle;Max_cycle;Signal;HPM_P1;HPM_P2
2023/01/15 00:00:19;;;;;;;11.00;2.10;;;6.80;99.90;;;;;;5051449;28;20041;-63
2023/01/15 00:02:45;;;;;;;11.73;1.80;;;6.80;99.90;;;;;;5050514;28;20037;-63
2023/01/15 00:05:11;;;;;;;7.28;1.60;;;6.70;99.90;;;;;;5050963;28;20056;-63
2023/01/15 00:07:37;;;;;;;10.82;1.70;;;6.70;99.90;;;;;;5049784;28;20109;-63
2023/01/15 00:10:03;;;;;;;11.23;1.73;;;6.70;99.90;;;;;;5049926;28;20132;-62
2023/01/15 00:12:29;;;;;;;10.48;1.83;;;6.70;99.90;;;;;;5050933;28;20037;-63
2023/01/15 00:14:56;;;;;;;16.83;2.33;;;6.80;99.90;;;;;;5050439;28;20056;-61
2023/01/15 00:17:22;;;;;;;15.45;2.22;;;6.70;99.90;;;;;;5053145;28;20083;-62
2023/01/15 00:19:48;;;;;;;8.82;2.00;;;6.70;99.90;;;;;;5053351;28;20095;-62
2023/01/15 00:22:14;;;;;;;7.45;2.22;;;6.80;99.90;;;;;;5054438;28;20143;-61
2023/01/15 00:27:39;;;;;;;12.45;1.88;;;6.70;99.90;;;;;;5053369;28;20140;-60
2023/01/15 00:30:07;;;;;;;11.13;2.20;;;6.70;99.90;;;;;;5055277;28;20048;-61
2023/01/15 00:32:32;;;;;;;8.73;1.83;;;6.70;99.90;;;;;;5053795;28;20048;-62
2023/01/15 00:34:58;;;;;;;9.88;1.75;;;6.70;99.90;;;;;;5054201;28;20655;-62
2023/01/15 00:37:24;;;;;;;11.70;2.25;;;6.70;99.90;;;;;;5053659;28;20053;-64
2023/01/15 00:39:50;;;;;;;13.13;2.10;;;6.70;99.90;;;;;;5051427;28;20049;-60
2023/01/15 00:42:16;;;;;;;10.43;2.08;;;6.70;99.90;;;;;;5053758;28;20049;-61
2023/01/15 00:44:42;;;;;;;8.25;1.70;;;6.70;99.90;;;;;;5053728;28;20033;-61
2023/01/15 00:47:13;;;;;;;14.88;1.80;;;6.70;99.90;;;;;;5053615;28;20052;-61
2023/01/15 00:49:42;;;;;;;11.07;2.30;;;6.80;99.90;;;;;;5052949;28;20048;-62
2023/01/15 00:52:09;;;;;;;11.50;1.58;;;6.80;99.90;;;;;;5054305;28;20039;-62
2023/01/15 00:54:35;;;;;;;10.52;2.38;;;6.80;99.90;;;;;;5053046;28;20089;-62
2023/01/15 00:57:00;;;;;;;9.57;1.70;;;6.80;99.90;;;;;;5053412;28;20124;-61
2023/01/15 00:59:26;;;;;;;12.93;2.25;;;6.80;99.90;;;;;;5054338;28;20048;-60
2023/01/15 01:01:52;;;;;;;7.10;2.45;;;6.70;99.90;;;;;;5053736;28;20435;-61
2023/01/15 01:04:18;;;;;;;8.95;1.88;;;6.70;99.90;;;;;;5053567;28;20091;-61
2023/01/15 01:06:43;;;;;;;7.75;1.63;;;6.70;99.90;;;;;;5051485;28;20068;-61
2023/01/15 01:09:13;;;;;;;12.57;2.28;;;6.70;99.90;;;;;;5052171;28;20116;-62
2023/01/15 01:11:39;;;;;;;16.67;1.95;;;6.70;99.90;;;;;;5051697;28;20468;-61
2023/01/15 01:14:05;;;;;;;14.00;2.30;;;6.70;99.90;;;;;;5052418;28;20496;-61
2023/01/15 01:16:39;;;;;;;14.65;2.45;;;6.70;99.90;;;;;;5051907;28;20075;-61
2023/01/15 01:19:13;;;;;;;12.23;1.80;;;6.70;99.90;;;;;;5052781;28;20060;-61
2023/01/15 01:21:41;;;;;;;7.97;1.80;;;6.70;99.90;;;;;;5052373;28;20064;-60
2023/01/15 01:24:07;;;;;;;11.38;1.88;;;6.60;99.90;;;;;;5051089;28;20041;-61
2023/01/15 01:26:33;;;;;;;11.07;1.77;;;6.60;99.90;;;;;;5050630;28;20048;-62
2023/01/15 01:28:59;;;;;;;12.70;2.28;;;6.60;99.90;;;;;;5048943;28;20045;-60
2023/01/15 01:31:25;;;;;;;11.80;1.95;;;6.60;99.90;;;;;;5047381;28;20100;-61
2023/01/15 01:33:53;;;;;;;11.63;2.05;;;6.60;99.90;;;;;;5050263;28;20133;-62
2023/01/15 01:36:20;;;;;;;13.93;1.85;;;6.60;99.90;;;;;;5049679;28;20092;-62
2023/01/15 01:38:49;;;;;;;16.17;2.63;;;6.60;99.90;;;;;;5050201;28;20494;-60
2023/01/15 01:41:16;;;;;;;17.60;2.38;;;6.60;99.90;;;;;;5051239;28;20056;-61
2023/01/15 01:44:03;;;;;;;10.65;2.03;;;6.60;99.90;;;;;;5051568;28;20052;-61
2023/01/15 01:46:31;;;;;;;9.02;1.60;;;6.60;99.90;;;;;;5051121;28;20395;-61
2023/01/15 01:49:00;;;;;;;8.75;2.00;;;6.60;99.90;;;;;;5052942;28;20053;-60
2023/01/15 01:51:29;;;;;;;14.38;2.33;;;6.60;99.90;;;;;;5051753;28;20041;-60
2023/01/15 01:53:56;;;;;;;14.45;2.25;;;6.60;99.90;;;;;;5051492;28;20116;-61
2023/01/15 01:56:23;;;;;;;11.50;2.00;;;6.50;99.90;;;;;;5052453;28;20057;-60
2023/01/15 01:58:53;;;;;;;8.18;1.92;;;6.50;99.90;;;;;;5052579;28;20045;-60
2023/01/15 02:01:21;;;;;;;9.13;1.83;;;6.50;99.90;;;;;;5050907;28;20078;-60
2023/01/15 02:03:47;;;;;;;17.98;2.85;;;6.50;99.90;;;;;;5051424;28;20057;-61
2023/01/15 02:06:14;;;;;;;13.57;2.15;;;6.50;99.90;;;;;;5049020;28;20040;-61
2023/01/15 02:08:40;;;;;;;13.20;2.28;;;6.50;99.90;;;;;;5051270;28;20064;-62
2023/01/15 02:11:11;;;;;;;11.70;2.17;;;6.50;99.90;;;;;;5051076;28;20140;-61
2023/01/15 02:13:49;;;;;;;9.60;1.80;;;6.50;99.90;;;;;;5052236;28;20057;-61
2023/01/15 02:16:25;;;;;;;9.40;2.08;;;6.50;99.90;;;;;;5051512;28;20052;-62
2023/01/15 02:18:59;;;;;;;14.98;2.10;;;6.40;99.90;;;;;;5051365;28;20045;-62
2023/01/15 02:21:34;;;;;;;10.27;1.75;;;6.50;99.90;;;;;;5051185;28;20045;-61
2023/01/15 02:24:22;;;;;;;16.23;2.47;;;6.50;99.90;;;;;;5051096;28;20525;-63
2023/01/15 02:26:48;;;;;;;15.30;2.47;;;6.50;99.90;;;;;;5045847;28;20057;-62
2023/01/15 02:29:21;;;;;;;14.25;2.40;;;6.50;99.90;;;;;;5049953;28;20068;-61
2023/01/15 02:31:50;;;;;;;13.18;2.30;;;6.40;99.90;;;;;;5051008;28;20057;-61
2023/01/15 02:34:28;;;;;;;12.05;2.00;;;6.40;99.90;;;;;;5050624;28;20122;-60
2023/01/15 02:37:08;;;;;;;15.27;2.05;;;6.50;99.90;;;;;;5045313;28;20033;-60
2023/01/15 02:39:37;;;;;;;14.65;2.17;;;6.30;99.90;;;;;;5050677;28;20105;-60
2023/01/15 02:42:07;;;;;;;8.40;1.83;;;6.40;99.90;;;;;;5049532;28;20036;-60
2023/01/15 02:44:36;;;;;;;17.90;3.00;;;6.40;99.90;;;;;;5051638;28;20598;-60
2023/01/15 02:47:04;;;;;;;10.35;1.70;;;6.40;99.90;;;;;;5052499;28;20074;-60
2023/01/15 02:49:31;;;;;;;15.20;2.10;;;6.40;99.90;;;;;;5048918;28;20754;-61
2023/01/15 02:52:05;;;;;;;11.60;1.77;;;6.40;99.90;;;;;;5051987;28;20051;-60
2023/01/15 02:54:39;;;;;;;13.93;2.47;;;6.40;99.90;;;;;;5051759;28;20048;-61
2023/01/15 02:57:06;;;;;;;14.45;2.00;;;6.40;99.90;;;;;;5051430;28;20037;-61
2023/01/15 02:59:39;;;;;;;8.98;1.73;;;6.30;99.90;;;;;;5051553;28;20036;-60
2023/01/15 03:02:14;;;;;;;11.13;2.70;;;6.40;99.90;;;;;;5051230;28;20075;-59
2023/01/15 03:04:45;;;;;;;18.48;2.55;;;6.30;99.90;;;;;;5050948;28;20066;-60
2023/01/15 03:07:22;;;;;;;16.02;2.30;;;6.40;99.90;;;;;;5049999;28;20055;-61
2023/01/15 03:09:49;;;;;;;13.20;2.40;;;6.40;99.90;;;;;;5051371;28;20061;-61
2023/01/15 03:12:23;;;;;;;12.63;2.30;;;6.40;99.90;;;;;;5050229;28;20602;-60
2023/01/15 03:15:05;;;;;;;16.02;2.05;;;6.30;99.90;;;;;;5048799;28;20055;-60
2023/01/15 03:17:41;;;;;;;15.73;2.45;;;6.30;99.90;;;;;;5051212;28;20056;-61
2023/01/15 03:20:23;;;;;;;12.18;2.17;;;6.30;99.90;;;;;;5046197;28;20056;-62
2023/01/15 03:22:59;;;;;;;13.77;1.98;;;6.30;99.90;;;;;;5050560;28;20106;-61
2023/01/15 03:25:39;;;;;;;14.82;2.53;;;6.30;99.90;;;;;;5051772;28;20583;-61
2023/01/15 03:28:06;;;;;;;14.32;2.15;;;6.30;99.90;;;;;;5049330;28;20336;-61
2023/01/15 03:30:33;;;;;;;12.68;2.05;;;6.30;99.90;;;;;;5049822;28;20029;-63
2023/01/15 03:32:59;;;;;;;10.60;1.83;;;6.30;99.90;;;;;;5050804;28;20049;-61
2023/01/15 03:35:57;;;;;;;10.85;2.08;;;6.30;99.90;;;;;;5047437;28;20029;-62
2023/01/15 03:38:32;;;;;;;12.20;2.50;;;6.30;99.90;;;;;;5048064;28;20052;-60
2023/01/15 03:40:58;;;;;;;13.88;2.58;;;6.30;99.90;;;;;;5048382;28;20037;-60
2023/01/15 03:43:39;;;;;;;11.30;2.08;;;6.20;99.90;;;;;;5050852;28;20041;-61
2023/01/15 03:46:12;;;;;;;13.43;2.15;;;6.20;99.90;;;;;;5050692;28;20111;-61
2023/01/15 03:48:48;;;;;;;11.52;2.25;;;6.20;99.90;;;;;;5050775;28;20041;-61
2023/01/15 03:51:25;;;;;;;11.48;2.70;;;6.20;99.90;;;;;;5052113;28;20056;-61
2023/01/15 03:53:56;;;;;;;16.98;2.58;;;6.20;99.90;;;;;;5054147;28;20059;-61
2023/01/15 03:56:54;;;;;;;13.85;2.08;;;6.20;99.90;;;;;;5054442;28;20095;-62
2023/01/15 03:59:33;;;;;;;14.18;2.28;;;6.20;99.90;;;;;;5054520;28;20056;-61
2023/01/15 04:02:02;;;;;;;13.55;1.90;;;6.10;99.90;;;;;;5050646;28;20079;-61
2023/01/15 04:04:28;;;;;;;14.23;2.50;;;6.10;99.90;;;;;;5052841;28;20048;-61
2023/01/15 04:06:55;;;;;;;11.43;2.85;;;6.10;99.90;;;;;;5052526;28;20049;-60
2023/01/15 04:09:22;;;;;;;10.60;2.40;;;6.10;99.90;;;;;;5051610;28;20045;-61
2023/01/15 04:11:48;;;;;;;17.73;2.88;;;6.10;99.90;;;;;;5053111;28;20045;-61
2023/01/15 04:14:14;;;;;;;10.73;2.03;;;6.10;99.90;;;;;;5051857;28;20203;-61
2023/01/15 04:16:40;;;;;;;10.82;2.10;;;6.10;99.90;;;;;;5054077;28;21159;-62
2023/01/15 04:19:05;;;;;;;7.38;1.70;;;6.10;99.90;;;;;;5053871;28;20056;-61
2023/01/15 04:21:31;;;;;;;20.05;2.95;;;6.10;99.90;;;;;;5053447;28;20123;-60
2023/01/15 04:23:57;;;;;;;9.50;2.03;;;6.10;99.90;;;;;;5051830;28;20037;-61
2023/01/15 04:26:23;;;;;;;15.15;2.13;;;6.10;99.90;;;;;;5051887;28;20052;-62
2023/01/15 04:28:48;;;;;;;15.30;2.53;;;6.10;99.90;;;;;;5054894;28;20586;-60
2023/01/15 04:31:14;;;;;;;9.90;2.30;;;6.10;99.90;;;;;;5053404;28;20033;-60
2023/01/15 04:33:40;;;;;;;14.82;2.30;;;6.10;99.90;;;;;;5052690;28;20056;-61
2023/01/15 04:36:07;;;;;;;12.07;2.20;;;6.10;99.90;;;;;;5051822;28;20119;-61
2023/01/15 04:38:33;;;;;;;9.90;2.05;;;6.10;99.90;;;;;;5051734;28;20053;-63
2023/01/15 04:46:29;;;;;;;13.13;2.50;;;6.10;99.90;;;;;;5053779;28;20037;-61
2023/01/15 04:48:55;;;;;;;14.77;2.45;;;6.10;99.90;;;;;;5052446;28;20124;-61
2023/01/15 04:51:20;;;;;;;12.50;1.85;;;6.10;99.90;;;;;;5054464;28;20043;-61
2023/01/15 04:53:46;;;;;;;15.30;2.25;;;6.10;99.90;;;;;;5034875;28;20077;-61
2023/01/15 04:56:12;;;;;;;12.52;1.92;;;6.10;99.90;;;;;;5050458;28;20057;-61
2023/01/15 04:58:37;;;;;;;9.48;2.05;;;6.10;99.90;;;;;;5053434;28;20052;-61
2023/01/15 05:01:13;;;;;;;13.70;2.25;;;6.00;99.90;;;;;;5051820;28;20033;-61
2023/01/15 05:03:39;;;;;;;8.80;1.98;;;6.00;99.90;;;;;;5051546;28;20078;-61
2023/01/15 05:06:05;;;;;;;15.52;2.38;;;6.00;99.90;;;;;;5053273;28;20053;-61
2023/01/15 05:08:31;;;;;;;12.00;2.42;;;6.00;99.90;;;;;;5053146;28;20048;-61
2023/01/15 05:11:02;;;;;;;10.05;2.10;;;6.00;99.90;;;;;;5049539;28;20044;-61
2023/01/15 05:13:29;;;;;;;15.18;2.13;;;6.00;99.90;;;;;;5053986;28;20060;-61
2023/01/15 05:15:54;;;;;;;13.57;1.98;;;6.00;99.90;;;;;;5052533;28;20088;-61
2023/01/15 05:18:20;;;;;;;15.07;2.15;;;5.90;99.90;;;;;;5052812;28;20068;-59
2023/01/15 05:20:46;;;;;;;12.05;2.33;;;6.00;99.90;;;;;;5053337;28;20057;-60
2023/01/15 05:23:11;;;;;;;20.08;2.33;;;6.90;99.90;;;;;;5053245;28;20095;-61
2023/01/15 05:25:37;;;;;;;12.88;1.85;;;6.00;99.90;;;;;;5051173;28;20037;-61
2023/01/15 05:28:03;;;;;;;14.02;2.20;;;6.00;99.90;;;;;;5051233;28;20053;-60
2023/01/15 05:30:29;;;;;;;18.60;2.42;;;5.90;99.90;;;;;;5052321;28;20092;-61
2023/01/15 05:32:55;;;;;;;11.95;1.90;;;6.00;99.90;;;;;;5052340;28;20096;-60
2023/01/15 05:35:20;;;;;;;10.93;1.73;;;5.90;99.90;;;;;;5049798;28;20052;-60
2023/01/15 05:37:46;;;;;;;12.85;2.08;;;5.90;99.90;;;;;;5033986;28;20049;-61
2023/01/15 05:40:12;;;;;;;16.13;2.50;;;5.90;99.90;;;;;;5046366;28;20083;-60
2023/01/15 05:42:37;;;;;;;11.32;2.42;;;6.00;99.90;;;;;;5049070;28;20037;-60
2023/01/15 05:45:04;;;;;;;11.25;2.28;;;6.00;99.90;;;;;;5049198;28;20045;-60
2023/01/15 05:47:29;;;;;;;8.90;1.95;;;6.00;99.90;;;;;;5052795;28;20049;-61
2023/01/15 05:49:55;;;;;;;9.38;1.80;;;6.00;99.90;;;;;;5052544;28;20041;-61
2023/01/15 05:52:21;;;;;;;10.18;2.33;;;5.90;99.90;;;;;;5051521;28;20089;-61
2023/01/15 05:54:48;;;;;;;10.68;2.00;;;5.90;99.90;;;;;;5051151;28;20044;-61
2023/01/15 05:57:14;;;;;;;12.43;2.63;;;5.90;99.90;;;;;;5049133;28;20051;-61
2023/01/15 05:59:40;;;;;;;11.43;2.38;;;5.90;99.90;;;;;;5053406;28;20102;-60
2023/01/15 06:02:05;;;;;;;11.90;2.30;;;5.80;99.90;;;;;;5051856;28;21119;-60
2023/01/15 06:04:31;;;;;;;15.38;2.40;;;5.80;99.90;;;;;;5052941;28;20475;-61
2023/01/15 06:06:57;;;;;;;12.20;2.25;;;5.80;99.90;;;;;;5049044;28;20053;-61
2023/01/15 06:09:23;;;;;;;14.30;2.58;;;5.80;99.90;;;;;;5052069;28;20536;-62
2023/01/15 06:11:49;;;;;;;10.98;2.88;;;5.70;99.90;;;;;;5050407;28;20051;-61
2023/01/15 06:14:15;;;;;;;8.88;1.90;;;5.70;99.90;;;;;;5033219;28;20147;-61
2023/01/15 06:16:41;;;;;;;7.88;1.55;;;5.70;99.90;;;;;;5049805;28;20055;-61
2023/01/15 06:19:07;;;;;;;14.18;2.10;;;5.70;99.90;;;;;;5051703;28;20048;-62
2023/01/15 06:21:34;;;;;;;11.45;1.90;;;5.70;99.90;;;;;;5052457;28;20492;-61
2023/01/15 06:24:00;;;;;;;9.10;1.65;;;5.70;99.90;;;;;;5051462;28;20624;-61
2023/01/15 06:26:26;;;;;;;12.32;2.72;;;5.60;99.90;;;;;;5048701;28;20124;-62
2023/01/15 06:28:52;;;;;;;13.77;2.30;;;5.60;99.90;;;;;;5051547;28;20059;-61
2023/01/15 06:31:20;;;;;;;11.10;2.92;;;5.80;99.90;;;;;;5050531;28;20033;-63
2023/01/15 06:33:46;;;;;;;13.52;2.35;;;5.50;99.90;;;;;;5052066;28;20183;-62
2023/01/15 06:36:14;;;;;;;11.07;2.17;;;5.50;99.90;;;;;;5050203;28;20044;-62
2023/01/15 06:38:41;;;;;;;12.88;2.47;;;5.50;99.90;;;;;;5052671;28;20063;-60
2023/01/15 06:49:29;;;;;;;7.97;1.45;;;5.40;99.90;;;;;;5051134;28;20063;-60
2023/01/15 06:51:55;;;;;;;9.50;1.75;;;5.40;99.90;;;;;;5052003;28;20045;-60
2023/01/15 06:54:20;;;;;;;10.75;2.00;;;5.40;99.90;;;;;;5051482;28;20087;-60
2023/01/15 06:56:46;;;;;;;12.38;2.42;;;5.50;99.90;;;;;;5050640;28;20057;-60
2023/01/15 06:59:12;;;;;;;9.77;2.03;;;5.60;99.90;;;;;;5050768;28;20041;-61
2023/01/15 07:01:37;;;;;;;10.60;1.52;;;5.60;99.90;;;;;;5051598;28;20072;-61
2023/01/15 07:04:03;;;;;;;7.97;1.70;;;5.60;99.90;;;;;;5051622;28;20567;-60
2023/01/15 07:06:30;;;;;;;11.93;2.22;;;5.50;99.90;;;;;;5049161;28;20067;-61
2023/01/15 07:08:55;;;;;;;8.40;2.10;;;5.50;99.90;;;;;;5032925;28;20044;-60
2023/01/15 07:11:21;;;;;;;9.32;2.10;;;5.50;99.90;;;;;;5049279;28;20623;-61
2023/01/15 07:13:48;;;;;;;9.10;1.90;;;5.40;99.90;;;;;;5050260;28;20108;-61
2023/01/15 07:16:26;;;;;;;6.68;1.35;;;5.40;99.90;;;;;;5048754;28;20045;-61
2023/01/15 07:18:54;;;;;;;8.05;1.80;;;5.40;99.90;;;;;;5050675;28;20065;-60
2023/01/15 07:21:19;;;;;;;8.02;1.77;;;5.50;99.90;;;;;;5050689;28;20052;-60
2023/01/15 07:23:45;;;;;;;10.07;2.20;;;5.40;99.90;;;;;;5047456;28;20049;-61
2023/01/15 07:26:11;;;;;;;12.15;2.05;;;5.40;99.90;;;;;;5049953;28;20110;-61
2023/01/15 07:28:36;;;;;;;10.23;1.90;;;5.20;99.90;;;;;;5051310;28;20090;-62
2023/01/15 07:31:02;;;;;;;13.57;1.55;;;5.30;99.90;;;;;;5048559;28;20048;-61
2023/01/15 07:33:28;;;;;;;10.15;2.08;;;5.20;99.90;;;;;;5051250;28;20055;-61
2023/01/15 07:35:55;;;;;;;8.00;2.78;;;5.20;99.90;;;;;;5050285;28;20049;-60
2023/01/15 07:38:21;;;;;;;7.38;2.05;;;5.10;99.90;;;;;;5051381;28;20057;-60
2023/01/15 07:49:44;;;;;;;9.55;1.60;;;5.10;99.90;;;;;;5048914;28;20041;-61
2023/01/15 07:51:45;;;;;;;5.95;1.05;;;5.10;99.90;;;;;;5047960;28;20068;-61
2023/01/15 07:54:11;;;;;;;9.65;1.88;;;5.20;99.90;;;;;;5046453;28;20533;-61
2023/01/15 07:56:37;;;;;;;13.00;2.20;;;5.10;99.90;;;;;;5049094;28;20056;-61
2023/01/15 07:59:03;;;;;;;7.32;1.30;;;5.10;99.90;;;;;;5046685;28;20041;-60
2023/01/15 08:01:28;;;;;;;11.60;2.47;;;5.10;99.90;;;;;;5049552;28;20056;-61
2023/01/15 08:03:54;;;;;;;10.27;1.40;;;5.00;99.90;;;;;;5050565;28;20056;-59
2023/01/15 08:06:20;;;;;;;9.57;1.88;;;5.10;99.90;;;;;;5044082;28;20041;-60
2023/01/15 08:08:45;;;;;;;8.57;1.60;;;5.10;99.90;;;;;;5028983;28;20049;-61
2023/01/15 08:16:40;;;;;;;9.00;1.50;;;5.10;99.90;;;;;;5046778;28;20037;-61
2023/01/15 08:19:05;;;;;;;7.90;1.50;;;5.10;99.90;;;;;;5047484;28;20106;-61
2023/01/15 08:21:31;;;;;;;11.32;1.48;;;5.10;99.90;;;;;;5048822;28;20084;-60
2023/01/15 08:23:57;;;;;;;14.70;2.20;;;5.10;99.90;;;;;;5047747;28;20053;-60
2023/01/15 08:26:22;;;;;;;11.30;2.00;;;5.10;99.90;;;;;;5050339;28;20524;-61
2023/01/15 08:28:48;;;;;;;10.77;1.63;;;5.20;99.90;;;;;;5048169;28;20033;-60
2023/01/15 08:31:14;;;;;;;8.95;1.45;;;5.20;99.90;;;;;;5045679;28;20065;-60
2023/01/15 08:33:40;;;;;;;15.75;2.20;;;5.30;99.90;;;;;;5029959;28;20799;-62
2023/01/15 08:36:06;;;;;;;12.30;2.13;;;5.40;99.90;;;;;;5046554;28;20037;-60
2023/01/15 08:38:31;;;;;;;13.32;2.30;;;5.40;99.90;;;;;;5052483;28;20072;-60
2023/01/15 08:40:57;;;;;;;9.52;1.83;;;5.50;99.90;;;;;;5049096;28;20836;-61
2023/01/15 08:43:24;;;;;;;13.23;1.90;;;5.50;99.90;;;;;;5042332;28;20122;-61
2023/01/15 08:45:50;;;;;;;12.25;1.98;;;5.50;99.90;;;;;;5052195;28;20703;-60
2023/01/15 08:48:15;;;;;;;10.52;1.80;;;5.50;99.90;;;;;;5053134;28;20077;-61
2023/01/15 08:50:41;;;;;;;6.63;1.55;;;5.40;99.90;;;;;;5051022;28;20045;-61
2023/01/15 08:53:06;;;;;;;9.13;1.42;;;5.30;99.90;;;;;;5049452;28;20093;-60
2023/01/15 08:55:32;;;;;;;9.48;1.65;;;5.00;99.90;;;;;;5050346;28;20049;-60
2023/01/15 08:57:58;;;;;;;5.95;1.60;;;4.80;99.90;;;;;;5048870;28;20574;-61
2023/01/15 09:00:24;;;;;;;8.60;1.90;;;4.80;99.90;;;;;;5052419;28;20382;-61
2023/01/15 09:02:50;;;;;;;5.47;1.33;;;4.70;99.90;;;;;;5048951;28;20404;-63
2023/01/15 09:05:16;;;;;;;11.18;1.40;;;4.60;99.90;;;;;;5051230;28;20075;-62
2023/01/15 09:07:41;;;;;;;9.27;1.63;;;4.50;99.90;;;;;;5051608;28;20044;-60
2023/01/15 09:10:08;;;;;;;10.05;1.88;;;4.60;99.90;;;;;;5052818;28;20044;-61
2023/01/15 09:12:33;;;;;;;13.65;1.77;;;4.30;99.90;;;;;;5051792;28;20049;-61
2023/01/15 09:15:00;;;;;;;7.22;2.03;;;4.30;99.90;;;;;;5052797;28;20149;-61
2023/01/15 09:17:26;;;;;;;6.22;1.63;;;4.10;99.90;;;;;;5052959;28;20052;-63
2023/01/15 09:19:52;;;;;;;9.60;1.48;;;4.00;99.90;;;;;;5052532;28;20147;-63
2023/01/15 09:22:18;;;;;;;9.73;1.50;;;3.90;99.90;;;;;;5050165;28;20116;-61
2023/01/15 09:24:43;;;;;;;9.07;1.60;;;3.80;99.90;;;;;;5052837;28;20038;-61
2023/01/15 09:27:12;;;;;;;13.70;2.58;;;3.90;99.90;;;;;;5049229;28;20571;-60
2023/01/15 09:29:38;;;;;;;15.77;1.80;;;4.00;99.90;;;;;;5049628;28;20059;-62
2023/01/15 09:32:04;;;;;;;13.60;1.48;;;4.10;99.90;;;;;;5049004;28;20219;-61
2023/01/15 09:34:30;;;;;;;13.60;2.50;;;4.10;99.90;;;;;;5048956;28;20586;-61
2023/01/15 09:36:55;;;;;;;10.57;1.98;;;4.30;99.90;;;;;;5045400;28;20402;-61
2023/01/15 09:39:21;;;;;;;13.93;2.20;;;4.30;99.90;;;;;;5049531;28;20059;-61
2023/01/15 09:42:28;;;;;;;13.02;2.78;;;4.40;99.90;;;;;;5051064;28;20049;-61
2023/01/15 09:45:11;;;;;;;13.18;2.20;;;4.50;99.90;;;;;;5045298;28;20052;-61
2023/01/15 09:47:49;;;;;;;9.07;2.00;;;4.50;99.90;;;;;;5050352;28;20045;-61
2023/01/15 09:50:36;;;;;;;17.98;2.65;;;4.60;99.90;;;;;;5052066;28;20497;-60
2023/01/15 09:53:26;;;;;;;19.55;2.30;;;4.60;99.90;;;;;;5047151;28;20051;-61
2023/01/15 09:55:54;;;;;;;9.52;1.75;;;4.60;99.90;;;;;;5051559;28;20294;-61
2023/01/15 09:58:36;;;;;;;14.02;2.13;;;4.70;99.90;;;;;;5051778;28;20048;-61
2023/01/15 10:01:02;;;;;;;10.82;2.22;;;4.70;99.90;;;;;;5051293;28;20378;-61
2023/01/15 10:03:35;;;;;;;13.90;1.80;;;4.80;99.90;;;;;;5048295;28;20092;-60
2023/01/15 10:06:23;;;;;;;10.80;2.80;;;4.90;99.90;;;;;;5049963;28;20052;-61
2023/01/15 10:08:49;;;;;;;12.90;2.05;;;5.00;99.90;;;;;;5048854;28;20053;-61
2023/01/15 10:11:15;;;;;;;15.90;1.73;;;5.00;99.90;;;;;;5049331;28;20072;-59
2023/01/15 10:13:45;;;;;;;7.57;2.42;;;5.00;99.90;;;;;;5050253;28;20048;-60
2023/01/15 10:16:23;;;;;;;11.45;1.90;;;5.00;99.90;;;;;;5048902;28;20122;-59
2023/01/15 10:18:49;;;;;;;10.20;1.80;;;5.00;99.90;;;;;;5050269;28;20037;-60
2023/01/15 10:21:24;;;;;;;13.73;2.30;;;5.10;99.90;;;;;;5047973;28;20631;-60
2023/01/15 10:24:16;;;;;;;15.68;2.88;;;5.10;99.90;;;;;;5046155;28;20045;-60
2023/01/15 10:26:55;;;;;;;7.13;1.58;;;5.20;99.90;;;;;;5047905;28;20048;-60
2023/01/15 10:29:21;;;;;;;15.00;1.85;;;5.20;99.90;;;;;;5048996;28;20105;-60
2023/01/15 10:31:47;;;;;;;10.95;2.70;;;5.20;99.90;;;;;;5048557;28;20076;-61
2023/01/15 10:34:32;;;;;;;10.30;2.10;;;5.10;99.90;;;;;;5049467;28;20076;-60
2023/01/15 10:37:07;;;;;;;5.85;1.17;;;5.20;99.90;;;;;;5048523;28;20041;-60
2023/01/15 10:39:57;;;;;;;8.68;1.67;;;5.20;99.90;;;;;;5045257;28;20045;-60
2023/01/15 10:42:45;;;;;;;10.70;2.85;;;5.20;99.90;;;;;;5050216;28;20044;-60
2023/01/15 10:45:24;;;;;;;14.65;2.95;;;5.30;99.90;;;;;;5049806;28;20042;-60
2023/01/15 10:47:56;;;;;;;16.45;2.75;;;5.30;99.90;;;;;;5049310;28;20552;-59
2023/01/15 10:50:26;;;;;;;15.63;2.60;;;5.30;99.90;;;;;;5047445;28;20056;-61
2023/01/15 10:53:13;;;;;;;14.23;1.98;;;5.20;99.90;;;;;;5047713;28;20063;-60
2023/01/15 10:55:43;;;;;;;9.48;1.85;;;5.10;99.90;;;;;;5048579;28;20044;-60
2023/01/15 10:58:20;;;;;;;11.98;2.30;;;5.20;99.90;;;;;;5049079;28;20095;-60
2023/01/15 11:00:52;;;;;;;12.15;1.98;;;5.20;99.90;;;;;;5043225;28;20883;-62
2023/01/15 11:03:37;;;;;;;13.43;1.85;;;5.30;99.90;;;;;;5047519;28;20045;-59
2023/01/15 11:06:04;;;;;;;13.50;2.38;;;5.30;99.90;;;;;;5049935;28;20122;-61
2023/01/15 11:08:31;;;;;;;24.58;2.97;;;5.40;99.90;;;;;;5048107;28;20427;-60
2023/01/15 11:11:06;;;;;;;8.40;1.70;;;5.50;99.90;;;;;;5043140;28;20041;-60
2023/01/15 11:19:43;;;;;;;11.75;1.88;;;5.70;99.90;;;;;;5050018;28;20049;-60
2023/01/15 11:22:18;;;;;;;10.75;1.73;;;5.70;99.90;;;;;;5043493;28;20037;-60
2023/01/15 11:24:45;;;;;;;15.57;2.10;;;6.00;99.90;;;;;;5049727;28;20140;-59
2023/01/15 11:27:18;;;;;;;11.82;2.00;;;6.20;99.90;;;;;;5044513;28;20037;-60
2023/01/15 11:29:44;;;;;;;11.07;1.92;;;6.30;99.90;;;;;;5044750;28;20051;-60
2023/01/15 11:32:30;;;;;;;9.40;1.90;;;6.40;99.90;;;;;;5049498;28;20045;-59
2023/01/15 11:35:01;;;;;;;13.65;1.60;;;6.30;99.90;;;;;;5050513;28;20051;-59
2023/01/15 11:37:28;;;;;;;11.38;2.78;;;6.30;99.90;;;;;;5048898;28;20165;-59
2023/01/15 11:40:04;;;;;;;13.50;2.13;;;6.20;99.90;;;;;;5048966;28;20049;-60
2023/01/15 11:51:09;;;;;;;10.48;2.08;;;6.50;99.90;;;;;;5042443;28;20037;-61
2023/01/15 11:53:48;;;;;;;16.17;2.53;;;6.50;99.90;;;;;;5046165;28;20544;-61
2023/01/15 11:56:18;;;;;;;11.20;3.22;;;6.50;99.90;;;;;;5048571;28;20040;-61
2023/01/15 11:58:50;;;;;;;10.60;1.80;;;6.40;99.90;;;;;;5050605;28;20472;-61
2023/01/15 12:01:40;;;;;;;10.02;2.05;;;6.40;99.90;;;;;;5046215;28;20040;-61
2023/01/15 12:04:37;;;;;;;12.98;2.30;;;6.40;99.90;;;;;;5050200;28;20068;-61
2023/01/15 12:07:05;;;;;;;11.90;2.05;;;6.50;99.90;;;;;;5049342;28;20060;-61
2023/01/15 12:09:43;;;;;;;15.70;2.38;;;6.40;99.90;;;;;;5047272;28;20114;-61
2023/01/15 12:12:48;;;;;;;8.52;2.30;;;6.40;99.90;;;;;;5052333;28;20049;-61
2023/01/15 12:15:39;;;;;;;18.23;2.13;;;6.40;99.90;;;;;;5039801;28;20057;-60
2023/01/15 12:18:43;;;;;;;12.73;2.25;;;6.30;99.90;;;;;;5049811;28;20096;-61
2023/01/15 12:21:32;;;;;;;7.75;1.90;;;6.20;99.90;;;;;;5048908;28;20053;-61
2023/01/15 12:24:09;;;;;;;13.50;2.55;;;6.20;99.90;;;;;;5050725;28;20059;-61
2023/01/15 12:26:57;;;;;;;10.60;2.05;;;6.40;99.90;;;;;;5028990;28;20033;-61
2023/01/15 12:29:38;;;;;;;11.27;2.38;;;6.50;99.90;;;;;;5048946;28;20052;-62
2023/01/15 12:32:16;;;;;;;10.93;1.95;;;6.50;99.90;;;;;;5043353;28;20104;-60
2023/01/15 12:35:05;;;;;;;10.73;1.80;;;6.40;99.90;;;;;;5048315;28;20041;-61
2023/01/15 12:37:40;;;;;;;10.88;1.88;;;6.30;99.90;;;;;;5041142;28;20051;-61
2023/01/15 12:40:20;;;;;;;11.38;1.77;;;6.20;99.90;;;;;;5042797;28;20500;-60
2023/01/15 12:45:50;;;;;;;10.90;2.08;;;6.20;99.90;;;;;;5047395;28;20053;-60
2023/01/15 12:48:28;;;;;;;11.05;2.47;;;6.20;99.90;;;;;;5046436;28;20148;-61
2023/01/15 12:50:58;;;;;;;9.13;1.52;;;6.10;99.90;;;;;;5048170;28;20045;-62
2023/01/15 12:53:42;;;;;;;8.32;1.42;;;5.90;99.90;;;;;;5046490;28;20053;-60
2023/01/15 12:56:23;;;;;;;8.80;2.63;;;5.70;99.90;;;;;;5045245;28;20090;-60
2023/01/15 12:59:05;;;;;;;9.27;1.70;;;5.50;99.90;;;;;;5043062;28;20045;-61
2023/01/15 13:01:52;;;;;;;6.85;1.50;;;5.40;99.90;;;;;;5044595;28;20103;-62
2023/01/15 13:04:43;;;;;;;14.02;2.33;;;5.40;99.90;;;;;;5047237;28;20102;-61
2023/01/15 13:07:20;;;;;;;20.88;2.50;;;5.30;99.90;;;;;;5046226;28;20480;-61
2023/01/15 13:10:05;;;;;;;10.77;2.20;;;5.40;99.90;;;;;;5048863;28;20048;-61
2023/01/15 13:12:32;;;;;;;10.98;1.98;;;5.50;99.90;;;;;;5050273;28;20044;-58
2023/01/15 13:14:58;;;;;;;14.57;2.47;;;5.50;99.90;;;;;;5045367;28;20045;-60
2023/01/15 13:18:03;;;;;;;14.88;2.45;;;5.60;99.90;;;;;;5049880;28;20140;-60
2023/01/15 13:20:50;;;;;;;17.80;2.25;;;5.80;99.90;;;;;;5030824;28;20056;-61
2023/01/15 13:23:54;;;;;;;20.08;2.35;;;6.00;99.90;;;;;;5041981;28;20074;-59
2023/01/15 13:26:33;;;;;;;10.73;1.98;;;6.20;99.90;;;;;;5044970;28;20052;-61
2023/01/15 13:29:24;;;;;;;15.98;2.58;;;6.40;99.90;;;;;;5050986;28;20507;-61
2023/01/15 13:31:50;;;;;;;11.63;3.35;;;6.50;99.90;;;;;;5050411;28;20041;-61
2023/01/15 13:34:54;;;;;;;12.07;2.88;;;6.50;99.90;;;;;;5050750;28;20049;-61
2023/01/15 13:37:26;;;;;;;13.80;2.22;;;6.40;99.90;;;;;;5034550;28;20684;-61
2023/01/15 13:40:15;;;;;;;12.23;2.35;;;6.40;99.90;;;;;;5044592;28;20345;-61
2023/01/15 13:42:46;;;;;;;12.25;2.20;;;6.40;99.90;;;;;;5046168;28;20055;-61
2023/01/15 13:45:18;;;;;;;9.45;1.98;;;6.40;99.90;;;;;;5045866;28;20044;-59
2023/01/15 13:47:47;;;;;;;11.65;2.25;;;6.40;99.90;;;;;;5049135;28;20049;-60
2023/01/15 13:50:26;;;;;;;11.80;2.65;;;6.40;99.90;;;;;;5047915;28;20049;-61
2023/01/15 13:53:00;;;;;;;13.13;2.50;;;6.40;99.90;;;;;;5046777;28;20067;-61
2023/01/15 13:55:32;;;;;;;16.33;2.13;;;6.40;99.90;;;;;;5048038;28;20456;-61
2023/01/15 13:57:58;;;;;;;10.88;2.78;;;6.30;99.90;;;;;;5047931;28;20051;-61